sensor_id;sensor_type;location;lat;lon;timestamp;P1;durP1;ratioP1;P2;durP2;ratioP2
6424;SDS011;12193;42.642;23.384;2023-04-24T00:02:00;9.27;;;5.07;;
6424;SDS011;12193;42.642;23.384;2023-04-24T00:04:29;7.50;;;5.13;;
6424;SDS011;12193;42.642;23.384;2023-04-24T03:08:51;10.23;;;7.10;;
6424;SDS011;12193;42.642;23.384;2023-04-24T03:11:21;13.60;;;7.33;;
6424;SDS011;12193;42.642;23.384;2023-04-24T03:13:51;14.97;;;7.87;;
6424;SDS011;12193;42.642;23.384;2023-04-24T03:16:21;12.57;;;7.77;;
6424;SDS011;12193;42.642;23.384;2023-04-24T03:18:50;14.90;;;7.87;;
6424;SDS011;12193;42.642;23.384;2023-04-24T03:21:19;14.80;;;7.80;;
6424;SDS011;12193;42.642;23.384;2023-04-24T03:23:51;13.57;;;7.60;;
6424;SDS011;12193;42.642;23.384;2023-04-24T03:26:20;11.63;;;7.53;;
6424;SDS011;12193;42.642;23.384;2023-04-24T03:28:50;13.67;;;7.70;;
6424;SDS011;12193;42.642;23.384;2023-04-24T03:31:19;14.43;;;7.90;;
6424;SDS011;12193;42.642;23.384;2023-04-24T03:33:48;14.33;;;7.33;;
6424;SDS011;12193;42.642;23.384;2023-04-24T03:36:18;17.43;;;8.10;;
6424;SDS011;12193;42.642;23.384;2023-04-24T03:38:47;14.73;;;7.87;;
6424;SDS011;12193;42.642;23.384;2023-04-24T03:41:19;14.07;;;7.60;;
6424;SDS011;12193;42.642;23.384;2023-04-24T03:43:48;17.33;;;8.43;;
6424;SDS011;12193;42.642;23.384;2023-04-24T03:46:18;12.47;;;7.30;;
6424;SDS011;12193;42.642;23.384;2023-04-24T03:48:47;11.70;;;7.33;;
6424;SDS011;12193;42.642;23.384;2023-04-24T03:51:17;11.83;;;7.30;;
6424;SDS011;12193;42.642;23.384;2023-04-24T03:53:46;11.93;;;7.53;;
6424;SDS011;12193;42.642;23.384;2023-04-24T03:56:15;13.83;;;8.00;;
6424;SDS011;12193;42.642;23.384;2023-04-24T03:58:49;13.13;;;7.70;;
6424;SDS011;12193;42.642;23.384;2023-04-24T04:01:18;14.13;;;7.70;;
6424;SDS011;12193;42.642;23.384;2023-04-24T04:03:47;18.83;;;8.90;;
6424;SDS011;12193;42.642;23.384;2023-04-24T04:06:17;17.13;;;8.97;;
6424;SDS011;12193;42.642;23.384;2023-04-24T04:08:47;18.87;;;8.87;;
6424;SDS011;12193;42.642;23.384;2023-04-24T04:11:16;16.20;;;9.97;;
6424;SDS011;12193;42.642;23.384;2023-04-24T04:13:48;13.63;;;9.40;;
6424;SDS011;12193;42.642;23.384;2023-04-24T04:16:17;15.47;;;9.23;;
6424;SDS011;12193;42.642;23.384;2023-04-24T04:18:47;14.43;;;9.90;;
6424;SDS011;12193;42.642;23.384;2023-04-24T04:21:16;15.70;;;9.50;;
6424;SDS011;12193;42.642;23.384;2023-04-24T04:23:45;14.83;;;9.60;;
6424;SDS011;12193;42.642;23.384;2023-04-24T04:26:14;15.67;;;9.37;;
6424;SDS011;12193;42.642;23.384;2023-04-24T04:28:44;15.40;;;10.10;;
6424;SDS011;12193;42.642;23.384;2023-04-24T04:31:17;17.93;;;11.03;;
6424;SDS011;12193;42.642;23.384;2023-04-24T04:33:46;15.10;;;10.20;;
6424;SDS011;12193;42.642;23.384;2023-04-24T04:36:15;15.23;;;9.87;;
6424;SDS011;12193;42.642;23.384;2023-04-24T04:38:46;16.60;;;10.30;;
6424;SDS011;12193;42.642;23.384;2023-04-24T04:41:15;21.93;;;9.27;;
6424;SDS011;12193;42.642;23.384;2023-04-24T04:43:48;15.27;;;9.47;;
6424;SDS011;12193;42.642;23.384;2023-04-24T04:46:18;17.07;;;10.20;;
6424;SDS011;12193;42.642;23.384;2023-04-24T04:48:52;16.77;;;9.03;;
6424;SDS011;12193;42.642;23.384;2023-04-24T04:51:22;13.37;;;8.67;;
6424;SDS011;12193;42.642;23.384;2023-04-24T04:53:51;16.90;;;9.13;;
6424;SDS011;12193;42.642;23.384;2023-04-24T04:56:21;12.40;;;8.03;;
6424;SDS011;12193;42.642;23.384;2023-04-24T04:58:53;14.33;;;8.23;;
6424;SDS011;12193;42.642;23.384;2023-04-24T05:01:22;20.57;;;9.20;;
6424;SDS011;12193;42.642;23.384;2023-04-24T05:03:53;18.03;;;8.77;;
6424;SDS011;12193;42.642;23.384;2023-04-24T05:06:22;16.83;;;8.77;;
6424;SDS011;12193;42.642;23.384;2023-04-24T05:08:51;13.67;;;9.27;;
6424;SDS011;12193;42.642;23.384;2023-04-24T05:11:22;15.40;;;8.60;;
6424;SDS011;12193;42.642;23.384;2023-04-24T05:13:55;17.10;;;8.97;;
6424;SDS011;12193;42.642;23.384;2023-04-24T05:16:24;18.57;;;9.07;;
6424;SDS011;12193;42.642;23.384;2023-04-24T05:18:53;14.67;;;8.63;;
6424;SDS011;12193;42.642;23.384;2023-04-24T05:21:23;17.73;;;9.30;;
6424;SDS011;12193;42.642;23.384;2023-04-24T05:23:52;17.70;;;9.03;;
6424;SDS011;12193;42.642;23.384;2023-04-24T05:26:22;14.00;;;9.17;;
6424;SDS011;12193;42.642;23.384;2023-04-24T05:28:54;16.07;;;8.07;;
6424;SDS011;12193;42.642;23.384;2023-04-24T05:31:23;13.23;;;9.00;;
6424;SDS011;12193;42.642;23.384;2023-04-24T05:33:53;13.73;;;8.77;;
6424;SDS011;12193;42.642;23.384;2023-04-24T05:36:22;14.77;;;9.07;;
6424;SDS011;12193;42.642;23.384;2023-04-24T05:38:53;14.27;;;7.87;;
6424;SDS011;12193;42.642;23.384;2023-04-24T05:41:22;19.37;;;8.40;;
6424;SDS011;12193;42.642;23.384;2023-04-24T05:43:54;11.10;;;7.63;;
6424;SDS011;12193;42.642;23.384;2023-04-24T05:46:24;12.83;;;7.83;;
6424;SDS011;12193;42.642;23.384;2023-04-24T05:48:53;15.73;;;7.80;;
6424;SDS011;12193;42.642;23.384;2023-04-24T05:51:22;10.67;;;6.83;;
6424;SDS011;12193;42.642;23.384;2023-04-24T05:53:52;13.97;;;7.03;;
6424;SDS011;12193;42.642;23.384;2023-04-24T05:56:21;13.40;;;7.27;;
6424;SDS011;12193;42.642;23.384;2023-04-24T05:58:51;16.00;;;8.00;;
6424;SDS011;12193;42.642;23.384;2023-04-24T06:01:22;13.10;;;7.90;;
6424;SDS011;12193;42.642;23.384;2023-04-24T06:03:53;13.07;;;7.40;;
6424;SDS011;12193;42.642;23.384;2023-04-24T06:06:22;14.47;;;8.47;;
6424;SDS011;12193;42.642;23.384;2023-04-24T06:08:52;13.13;;;8.20;;
6424;SDS011;12193;42.642;23.384;2023-04-24T06:11:22;15.37;;;8.33;;
6424;SDS011;12193;42.642;23.384;2023-04-24T06:13:54;17.77;;;8.40;;
6424;SDS011;12193;42.642;23.384;2023-04-24T06:16:24;13.57;;;8.00;;
6424;SDS011;12193;42.642;23.384;2023-04-24T06:18:53;14.63;;;8.63;;
6424;SDS011;12193;42.642;23.384;2023-04-24T06:21:22;15.07;;;8.80;;
6424;SDS011;12193;42.642;23.384;2023-04-24T06:23:52;16.37;;;8.10;;
6424;SDS011;12193;42.642;23.384;2023-04-24T06:26:22;15.27;;;8.50;;
6424;SDS011;12193;42.642;23.384;2023-04-24T06:28:55;46.77;;;9.97;;
6424;SDS011;12193;42.642;23.384;2023-04-24T06:31:25;64.40;;;11.57;;
6424;SDS011;12193;42.642;23.384;2023-04-24T06:33:55;20.57;;;8.50;;
6424;SDS011;12193;42.642;23.384;2023-04-24T06:36:24;69.93;;;12.50;;
6424;SDS011;12193;42.642;23.384;2023-04-24T06:38:54;42.77;;;10.70;;
6424;SDS011;12193;42.642;23.384;2023-04-24T06:41:23;48.97;;;11.03;;
6424;SDS011;12193;42.642;23.384;2023-04-24T06:43:55;72.00;;;16.23;;
6424;SDS011;12193;42.642;23.384;2023-04-24T06:46:25;54.80;;;12.33;;
6424;SDS011;12193;42.642;23.384;2023-04-24T06:48:54;59.43;;;13.27;;
6424;SDS011;12193;42.642;23.384;2023-04-24T06:51:24;20.23;;;8.80;;
6424;SDS011;12193;42.642;23.384;2023-04-24T06:53:54;18.50;;;8.53;;
6424;SDS011;12193;42.642;23.384;2023-04-24T06:56:24;43.80;;;11.27;;
6424;SDS011;12193;42.642;23.384;2023-04-24T06:58:57;69.30;;;11.13;;
6424;SDS011;12193;42.642;23.384;2023-04-24T07:01:26;47.80;;;10.70;;
6424;SDS011;12193;42.642;23.384;2023-04-24T07:03:56;21.77;;;8.60;;
6424;SDS011;12193;42.642;23.384;2023-04-24T07:06:25;17.33;;;8.83;;
6424;SDS011;12193;42.642;23.384;2023-04-24T07:08:57;16.17;;;8.43;;
6424;SDS011;12193;42.642;23.384;2023-04-24T07:11:29;12.70;;;8.70;;
6424;SDS011;12193;42.642;23.384;2023-04-24T07:14:01;16.67;;;8.77;;
6424;SDS011;12193;42.642;23.384;2023-04-24T07:16:31;14.03;;;8.73;;
6424;SDS011;12193;42.642;23.384;2023-04-24T07:19:00;14.37;;;8.30;;
6424;SDS011;12193;42.642;23.384;2023-04-24T07:21:29;14.60;;;8.00;;
6424;SDS011;12193;42.642;23.384;2023-04-24T07:23:59;12.67;;;7.93;;
6424;SDS011;12193;42.642;23.384;2023-04-24T07:26:29;13.93;;;8.07;;
6424;SDS011;12193;42.642;23.384;2023-04-24T07:29:03;14.77;;;8.23;;
6424;SDS011;12193;42.642;23.384;2023-04-24T07:31:32;14.80;;;8.07;;
6424;SDS011;12193;42.642;23.384;2023-04-24T07:34:01;12.73;;;7.50;;
6424;SDS011;12193;42.642;23.384;2023-04-24T07:36:31;13.00;;;7.97;;
6424;SDS011;12193;42.642;23.384;2023-04-24T07:39:00;14.43;;;8.07;;
6424;SDS011;12193;42.642;23.384;2023-04-24T07:41:29;14.60;;;7.77;;
6424;SDS011;12193;42.642;23.384;2023-04-24T07:43:59;17.37;;;8.77;;
6424;SDS011;12193;42.642;23.384;2023-04-24T07:46:31;13.97;;;8.53;;
6424;SDS011;12193;42.642;23.384;2023-04-24T07:49:01;11.23;;;8.20;;
6424;SDS011;12193;42.642;23.384;2023-04-24T07:51:31;10.53;;;7.53;;
6424;SDS011;12193;42.642;23.384;2023-04-24T07:54:04;11.13;;;7.37;;
6424;SDS011;12193;42.642;23.384;2023-04-24T07:56:34;9.83;;;5.77;;
6424;SDS011;12193;42.642;23.384;2023-04-24T07:59:07;9.43;;;6.40;;
6424;SDS011;12193;42.642;23.384;2023-04-24T08:01:36;9.77;;;6.27;;
6424;SDS011;12193;42.642;23.384;2023-04-24T08:04:07;13.90;;;7.37;;
6424;SDS011;12193;42.642;23.384;2023-04-24T08:06:36;13.20;;;7.80;;
6424;SDS011;12193;42.642;23.384;2023-04-24T08:09:05;14.33;;;8.43;;
6424;SDS011;12193;42.642;23.384;2023-04-24T08:11:35;13.27;;;7.93;;
6424;SDS011;12193;42.642;23.384;2023-04-24T08:14:07;12.37;;;7.93;;
6424;SDS011;12193;42.642;23.384;2023-04-24T08:16:38;12.23;;;7.30;;
6424;SDS011;12193;42.642;23.384;2023-04-24T08:19:08;15.23;;;7.70;;
6424;SDS011;12193;42.642;23.384;2023-04-24T08:21:37;10.97;;;6.47;;
6424;SDS011;12193;42.642;23.384;2023-04-24T08:24:07;9.27;;;6.53;;
6424;SDS011;12193;42.642;23.384;2023-04-24T08:26:36;8.40;;;6.43;;
6424;SDS011;12193;42.642;23.384;2023-04-24T08:29:08;8.67;;;7.03;;
6424;SDS011;12193;42.642;23.384;2023-04-24T08:31:37;10.43;;;6.90;;
6424;SDS011;12193;42.642;23.384;2023-04-24T08:34:07;13.93;;;6.77;;
6424;SDS011;12193;42.642;23.384;2023-04-24T08:36:36;9.57;;;6.03;;
6424;SDS011;12193;42.642;23.384;2023-04-24T08:39:06;10.37;;;6.90;;
6424;SDS011;12193;42.642;23.384;2023-04-24T08:41:36;11.57;;;6.03;;
6424;SDS011;12193;42.642;23.384;2023-04-24T08:44:11;14.00;;;6.80;;
6424;SDS011;12193;42.642;23.384;2023-04-24T08:46:42;10.17;;;6.47;;
6424;SDS011;12193;42.642;23.384;2023-04-24T08:49:13;11.37;;;6.77;;
6424;SDS011;12193;42.642;23.384;2023-04-24T08:51:44;9.67;;;5.97;;
6424;SDS011;12193;42.642;23.384;2023-04-24T08:54:13;9.37;;;6.30;;
6424;SDS011;12193;42.642;23.384;2023-04-24T08:56:43;9.00;;;5.67;;
6424;SDS011;12193;42.642;23.384;2023-04-24T08:59:17;8.53;;;6.20;;
6424;SDS011;12193;42.642;23.384;2023-04-24T09:01:47;9.73;;;5.90;;
6424;SDS011;12193;42.642;23.384;2023-04-24T09:04:19;11.17;;;5.50;;
6424;SDS011;12193;42.642;23.384;2023-04-24T09:06:50;11.53;;;6.23;;
6424;SDS011;12193;42.642;23.384;2023-04-24T09:09:19;8.43;;;5.57;;
6424;SDS011;12193;42.642;23.384;2023-04-24T09:11:50;8.37;;;5.90;;
6424;SDS011;12193;42.642;23.384;2023-04-24T09:14:24;10.30;;;6.23;;
6424;SDS011;12193;42.642;23.384;2023-04-24T09:16:57;10.23;;;6.23;;
6424;SDS011;12193;42.642;23.384;2023-04-24T09:19:26;11.33;;;6.10;;
6424;SDS011;12193;42.642;23.384;2023-04-24T09:21:55;8.17;;;6.10;;
6424;SDS011;12193;42.642;23.384;2023-04-24T09:24:25;9.33;;;5.77;;
6424;SDS011;12193;42.642;23.384;2023-04-24T09:26:56;12.50;;;6.00;;
6424;SDS011;12193;42.642;23.384;2023-04-24T09:29:30;10.60;;;6.37;;
6424;SDS011;12193;42.642;23.384;2023-04-24T09:32:04;10.20;;;5.93;;
6424;SDS011;12193;42.642;23.384;2023-04-24T09:34:47;15.60;;;6.20;;
6424;SDS011;12193;42.642;23.384;2023-04-24T09:37:27;13.57;;;5.90;;
6424;SDS011;12193;42.642;23.384;2023-04-24T09:40:15;8.90;;;6.33;;
6424;SDS011;12193;42.642;23.384;2023-04-24T09:42:46;10.17;;;5.90;;
6424;SDS011;12193;42.642;23.384;2023-04-24T09:45:23;10.23;;;5.50;;
6424;SDS011;12193;42.642;23.384;2023-04-24T09:47:56;9.47;;;5.93;;
6424;SDS011;12193;42.642;23.384;2023-04-24T09:50:26;8.13;;;5.77;;
6424;SDS011;12193;42.642;23.384;2023-04-24T09:52:57;9.27;;;5.43;;
6424;SDS011;12193;42.642;23.384;2023-04-24T09:55:28;6.97;;;5.27;;
6424;SDS011;12193;42.642;23.384;2023-04-24T09:57:57;8.43;;;5.17;;
6424;SDS011;12193;42.642;23.384;2023-04-24T10:00:33;11.93;;;5.87;;
6424;SDS011;12193;42.642;23.384;2023-04-24T10:03:03;9.87;;;5.67;;
6424;SDS011;12193;42.642;23.384;2023-04-24T10:05:35;8.23;;;5.50;;
6424;SDS011;12193;42.642;23.384;2023-04-24T10:08:05;8.10;;;5.20;;
6424;SDS011;12193;42.642;23.384;2023-04-24T10:10:37;10.93;;;5.70;;
6424;SDS011;12193;42.642;23.384;2023-04-24T10:13:08;8.47;;;5.60;;
6424;SDS011;12193;42.642;23.384;2023-04-24T10:15:42;6.40;;;4.90;;
6424;SDS011;12193;42.642;23.384;2023-04-24T10:18:12;8.47;;;5.50;;
6424;SDS011;12193;42.642;23.384;2023-04-24T10:20:41;10.27;;;5.67;;
6424;SDS011;12193;42.642;23.384;2023-04-24T10:23:11;9.37;;;5.67;;
6424;SDS011;12193;42.642;23.384;2023-04-24T10:25:41;8.17;;;5.50;;
6424;SDS011;12193;42.642;23.384;2023-04-24T10:28:11;7.43;;;5.00;;
6424;SDS011;12193;42.642;23.384;2023-04-24T10:30:44;11.40;;;5.70;;
6424;SDS011;12193;42.642;23.384;2023-04-24T10:33:15;8.77;;;5.20;;
6424;SDS011;12193;42.642;23.384;2023-04-24T10:35:47;8.37;;;5.30;;
6424;SDS011;12193;42.642;23.384;2023-04-24T10:38:22;9.03;;;5.23;;
6424;SDS011;12193;42.642;23.384;2023-04-24T10:40:57;7.17;;;5.27;;
6424;SDS011;12193;42.642;23.384;2023-04-24T10:43:35;11.17;;;5.57;;
6424;SDS011;12193;42.642;23.384;2023-04-24T10:46:07;9.33;;;5.50;;
6424;SDS011;12193;42.642;23.384;2023-04-24T10:48:42;7.63;;;5.10;;
6424;SDS011;12193;42.642;23.384;2023-04-24T10:51:12;6.07;;;4.93;;
6424;SDS011;12193;42.642;23.384;2023-04-24T10:53:42;6.77;;;5.07;;
6424;SDS011;12193;42.642;23.384;2023-04-24T10:56:11;9.33;;;5.20;;
6424;SDS011;12193;42.642;23.384;2023-04-24T10:58:41;7.33;;;5.10;;
6424;SDS011;12193;42.642;23.384;2023-04-24T11:01:25;6.03;;;5.10;;
6424;SDS011;12193;42.642;23.384;2023-04-24T11:03:58;6.07;;;5.17;;
6424;SDS011;12193;42.642;23.384;2023-04-24T11:06:29;5.97;;;5.00;;
6424;SDS011;12193;42.642;23.384;2023-04-24T11:09:02;8.43;;;5.13;;
6424;SDS011;12193;42.642;23.384;2023-04-24T11:11:34;7.73;;;4.93;;
6424;SDS011;12193;42.642;23.384;2023-04-24T11:14:06;6.97;;;5.17;;
6424;SDS011;12193;42.642;23.384;2023-04-24T11:16:42;10.77;;;6.07;;
6424;SDS011;12193;42.642;23.384;2023-04-24T11:19:20;9.80;;;5.50;;
6424;SDS011;12193;42.642;23.384;2023-04-24T11:21:55;6.70;;;5.33;;
6424;SDS011;12193;42.642;23.384;2023-04-24T11:24:27;9.13;;;5.27;;
6424;SDS011;12193;42.642;23.384;2023-04-24T11:27:05;8.17;;;5.00;;
6424;SDS011;12193;42.642;23.384;2023-04-24T11:29:39;7.10;;;5.23;;
6424;SDS011;12193;42.642;23.384;2023-04-24T11:32:19;5.80;;;4.97;;
6424;SDS011;12193;42.642;23.384;2023-04-24T11:34:53;6.83;;;5.27;;
6424;SDS011;12193;42.642;23.384;2023-04-24T11:37:25;13.70;;;5.63;;
6424;SDS011;12193;42.642;23.384;2023-04-24T11:39:56;7.90;;;5.00;;
6424;SDS011;12193;42.642;23.384;2023-04-24T11:42:26;4.70;;;3.80;;
6424;SDS011;12193;42.642;23.384;2023-04-24T11:44:56;7.17;;;4.20;;
6424;SDS011;12193;42.642;23.384;2023-04-24T11:47:30;6.70;;;4.70;;
6424;SDS011;12193;42.642;23.384;2023-04-24T11:50:00;4.47;;;4.07;;
6424;SDS011;12193;42.642;23.384;2023-04-24T11:52:31;5.70;;;4.20;;
6424;SDS011;12193;42.642;23.384;2023-04-24T11:55:02;7.07;;;4.50;;
6424;SDS011;12193;42.642;23.384;2023-04-24T11:57:32;8.33;;;4.50;;
6424;SDS011;12193;42.642;23.384;2023-04-24T12:02:36;5.57;;;4.20;;
6424;SDS011;12193;42.642;23.384;2023-04-24T12:05:06;4.70;;;3.90;;
6424;SDS011;12193;42.642;23.384;2023-04-24T12:07:40;7.17;;;4.10;;
6424;SDS011;12193;42.642;23.384;2023-04-24T12:10:11;4.27;;;3.80;;
6424;SDS011;12193;42.642;23.384;2023-04-24T12:12:40;4.70;;;3.93;;
6424;SDS011;12193;42.642;23.384;2023-04-24T12:15:12;8.43;;;4.43;;
6424;SDS011;12193;42.642;23.384;2023-04-24T12:17:44;5.53;;;4.30;;
6424;SDS011;12193;42.642;23.384;2023-04-24T12:20:13;4.97;;;4.10;;
6424;SDS011;12193;42.642;23.384;2023-04-24T12:22:43;6.03;;;4.70;;
6424;SDS011;12193;42.642;23.384;2023-04-24T12:25:14;7.47;;;4.70;;
6424;SDS011;12193;42.642;23.384;2023-04-24T12:27:44;5.83;;;4.60;;
6424;SDS011;12193;42.642;23.384;2023-04-24T12:30:15;9.33;;;5.07;;
6424;SDS011;12193;42.642;23.384;2023-04-24T12:32:48;7.10;;;4.43;;
6424;SDS011;12193;42.642;23.384;2023-04-24T12:35:20;5.10;;;4.33;;
6424;SDS011;12193;42.642;23.384;2023-04-24T12:37:52;6.70;;;4.90;;
6424;SDS011;12193;42.642;23.384;2023-04-24T12:40:21;6.37;;;4.13;;
6424;SDS011;12193;42.642;23.384;2023-04-24T12:42:55;7.13;;;3.63;;
6424;SDS011;12193;42.642;23.384;2023-04-24T12:45:24;5.80;;;3.67;;
6424;SDS011;12193;42.642;23.384;2023-04-24T12:47:56;5.53;;;4.33;;
6424;SDS011;12193;42.642;23.384;2023-04-24T12:50:26;6.70;;;4.43;;
6424;SDS011;12193;42.642;23.384;2023-04-24T12:52:55;5.57;;;4.67;;
6424;SDS011;12193;42.642;23.384;2023-04-24T12:55:24;6.03;;;4.23;;
6424;SDS011;12193;42.642;23.384;2023-04-24T12:57:53;7.60;;;4.97;;
6424;SDS011;12193;42.642;23.384;2023-04-24T13:00:24;6.57;;;4.90;;
6424;SDS011;12193;42.642;23.384;2023-04-24T13:02:56;6.97;;;5.07;;
6424;SDS011;12193;42.642;23.384;2023-04-24T13:05:25;6.07;;;4.70;;
6424;SDS011;12193;42.642;23.384;2023-04-24T13:07:54;6.30;;;4.27;;
6424;SDS011;12193;42.642;23.384;2023-04-24T13:10:24;5.57;;;4.33;;
6424;SDS011;12193;42.642;23.384;2023-04-24T13:12:53;8.13;;;4.77;;
6424;SDS011;12193;42.642;23.384;2023-04-24T13:15:22;5.90;;;4.30;;
6424;SDS011;12193;42.642;23.384;2023-04-24T13:17:52;6.33;;;4.90;;
6424;SDS011;12193;42.642;23.384;2023-04-24T13:20:24;6.80;;;4.27;;
6424;SDS011;12193;42.642;23.384;2023-04-24T13:22:53;10.20;;;5.63;;
6424;SDS011;12193;42.642;23.384;2023-04-24T13:25:22;5.80;;;4.73;;
6424;SDS011;12193;42.642;23.384;2023-04-24T13:27:52;6.70;;;5.07;;
6424;SDS011;12193;42.642;23.384;2023-04-24T13:30:21;8.37;;;5.10;;
6424;SDS011;12193;42.642;23.384;2023-04-24T13:32:51;8.07;;;5.37;;
6424;SDS011;12193;42.642;23.384;2023-04-24T13:35:20;6.77;;;5.40;;
6424;SDS011;12193;42.642;23.384;2023-04-24T13:37:52;8.97;;;5.30;;
6424;SDS011;12193;42.642;23.384;2023-04-24T13:40:22;7.23;;;5.13;;
6424;SDS011;12193;42.642;23.384;2023-04-24T13:42:51;7.37;;;5.20;;
6424;SDS011;12193;42.642;23.384;2023-04-24T13:45:21;10.20;;;5.40;;
6424;SDS011;12193;42.642;23.384;2023-04-24T13:47:50;8.53;;;5.00;;
6424;SDS011;12193;42.642;23.384;2023-04-24T13:50:19;7.73;;;5.20;;
6424;SDS011;12193;42.642;23.384;2023-04-24T13:52:52;9.47;;;5.77;;
6424;SDS011;12193;42.642;23.384;2023-04-24T13:55:22;9.40;;;5.10;;
6424;SDS011;12193;42.642;23.384;2023-04-24T13:57:51;7.03;;;5.33;;
6424;SDS011;12193;42.642;23.384;2023-04-24T14:00:21;8.80;;;5.30;;
6424;SDS011;12193;42.642;23.384;2023-04-24T14:02:50;7.27;;;5.43;;
6424;SDS011;12193;42.642;23.384;2023-04-24T14:05:19;9.90;;;5.80;;
6424;SDS011;12193;42.642;23.384;2023-04-24T14:07:52;7.53;;;5.47;;
6424;SDS011;12193;42.642;23.384;2023-04-24T14:10:21;8.70;;;5.73;;
6424;SDS011;12193;42.642;23.384;2023-04-24T14:12:51;9.13;;;5.20;;
6424;SDS011;12193;42.642;23.384;2023-04-24T14:15:20;8.87;;;5.33;;
6424;SDS011;12193;42.642;23.384;2023-04-24T14:17:50;10.30;;;4.83;;
6424;SDS011;12193;42.642;23.384;2023-04-24T14:20:20;5.97;;;4.50;;
6424;SDS011;12193;42.642;23.384;2023-04-24T14:22:52;5.23;;;3.63;;
6424;SDS011;12193;42.642;23.384;2023-04-24T14:25:25;4.87;;;3.80;;
6424;SDS011;12193;42.642;23.384;2023-04-24T14:27:54;5.93;;;4.30;;
6424;SDS011;12193;42.642;23.384;2023-04-24T14:30:23;7.33;;;3.77;;
6424;SDS011;12193;42.642;23.384;2023-04-24T14:32:53;5.13;;;3.60;;
6424;SDS011;12193;42.642;23.384;2023-04-24T14:35:22;5.17;;;4.17;;
6424;SDS011;12193;42.642;23.384;2023-04-24T14:37:54;6.80;;;3.80;;
6424;SDS011;12193;42.642;23.384;2023-04-24T14:40:23;5.57;;;4.37;;
6424;SDS011;12193;42.642;23.384;2023-04-24T14:42:52;6.57;;;4.20;;
6424;SDS011;12193;42.642;23.384;2023-04-24T14:45:22;6.87;;;4.13;;
6424;SDS011;12193;42.642;23.384;2023-04-24T14:47:52;5.97;;;4.17;;
6424;SDS011;12193;42.642;23.384;2023-04-24T14:50:22;4.73;;;4.23;;
6424;SDS011;12193;42.642;23.384;2023-04-24T14:52:56;4.67;;;4.07;;
6424;SDS011;12193;42.642;23.384;2023-04-24T14:55:28;4.77;;;4.13;;
6424;SDS011;12193;42.642;23.384;2023-04-24T14:57:58;7.43;;;4.50;;
6424;SDS011;12193;42.642;23.384;2023-04-24T15:00:27;6.40;;;4.23;;
6424;SDS011;12193;42.642;23.384;2023-04-24T15:02:56;7.83;;;4.60;;
6424;SDS011;12193;42.642;23.384;2023-04-24T15:05:26;5.93;;;4.80;;
6424;SDS011;12193;42.642;23.384;2023-04-24T15:07:58;6.10;;;5.00;;
6424;SDS011;12193;42.642;23.384;2023-04-24T15:10:28;8.13;;;4.93;;
6424;SDS011;12193;42.642;23.384;2023-04-24T15:12:57;6.70;;;4.80;;
6424;SDS011;12193;42.642;23.384;2023-04-24T15:15:27;6.07;;;4.53;;
6424;SDS011;12193;42.642;23.384;2023-04-24T15:17:56;7.37;;;5.37;;
6424;SDS011;12193;42.642;23.384;2023-04-24T15:20:26;9.03;;;5.03;;
6424;SDS011;12193;42.642;23.384;2023-04-24T15:22:55;7.80;;;5.37;;
6424;SDS011;12193;42.642;23.384;2023-04-24T15:25:28;7.23;;;5.20;;
6424;SDS011;12193;42.642;23.384;2023-04-24T15:27:57;7.53;;;5.40;;
6424;SDS011;12193;42.642;23.384;2023-04-24T15:30:27;8.17;;;5.47;;
6424;SDS011;12193;42.642;23.384;2023-04-24T15:32:57;7.60;;;5.30;;
6424;SDS011;12193;42.642;23.384;2023-04-24T15:35:28;7.47;;;5.73;;
6424;SDS011;12193;42.642;23.384;2023-04-24T15:38:00;8.77;;;6.07;;
6424;SDS011;12193;42.642;23.384;2023-04-24T15:40:30;7.47;;;5.60;;
6424;SDS011;12193;42.642;23.384;2023-04-24T15:42:59;8.30;;;5.30;;
6424;SDS011;12193;42.642;23.384;2023-04-24T15:45:29;6.70;;;4.93;;
6424;SDS011;12193;42.642;23.384;2023-04-24T15:47:58;7.07;;;5.43;;
6424;SDS011;12193;42.642;23.384;2023-04-24T15:50:27;10.00;;;5.53;;
6424;SDS011;12193;42.642;23.384;2023-04-24T15:52:57;6.73;;;6.03;;
6424;SDS011;12193;42.642;23.384;2023-04-24T15:55:29;8.73;;;6.47;;
6424;SDS011;12193;42.642;23.384;2023-04-24T15:57:58;7.90;;;5.73;;
6424;SDS011;12193;42.642;23.384;2023-04-24T16:00:28;9.13;;;6.20;;
6424;SDS011;12193;42.642;23.384;2023-04-24T16:02:59;10.50;;;7.17;;
6424;SDS011;12193;42.642;23.384;2023-04-24T16:05:28;9.20;;;7.37;;
6424;SDS011;12193;42.642;23.384;2023-04-24T16:08:00;9.93;;;6.73;;
6424;SDS011;12193;42.642;23.384;2023-04-24T16:10:29;13.77;;;7.10;;
6424;SDS011;12193;42.642;23.384;2023-04-24T16:12:59;10.27;;;7.60;;
6424;SDS011;12193;42.642;23.384;2023-04-24T16:15:29;14.10;;;8.13;;
6424;SDS011;12193;42.642;23.384;2023-04-24T16:17:59;13.40;;;7.20;;
6424;SDS011;12193;42.642;23.384;2023-04-24T16:20:28;14.70;;;7.90;;
6424;SDS011;12193;42.642;23.384;2023-04-24T16:23:00;15.13;;;7.63;;
6424;SDS011;12193;42.642;23.384;2023-04-24T16:25:30;13.47;;;7.53;;
6424;SDS011;12193;42.642;23.384;2023-04-24T16:27:59;10.97;;;7.87;;
6424;SDS011;12193;42.642;23.384;2023-04-24T16:30:29;13.50;;;9.00;;
6424;SDS011;12193;42.642;23.384;2023-04-24T16:32:58;13.30;;;8.37;;
6424;SDS011;12193;42.642;23.384;2023-04-24T16:35:32;14.50;;;8.73;;
6424;SDS011;12193;42.642;23.384;2023-04-24T16:38:04;16.53;;;8.73;;
6424;SDS011;12193;42.642;23.384;2023-04-24T16:40:33;12.93;;;8.90;;
6424;SDS011;12193;42.642;23.384;2023-04-24T16:43:02;12.57;;;8.87;;
6424;SDS011;12193;42.642;23.384;2023-04-24T16:45:32;14.87;;;8.90;;
6424;SDS011;12193;42.642;23.384;2023-04-24T16:48:01;13.63;;;8.90;;
6424;SDS011;12193;42.642;23.384;2023-04-24T16:50:30;13.20;;;8.87;;
6424;SDS011;12193;42.642;23.384;2023-04-24T16:53:00;16.27;;;8.67;;
6424;SDS011;12193;42.642;23.384;2023-04-24T16:55:32;11.00;;;8.40;;
6424;SDS011;12193;42.642;23.384;2023-04-24T16:58:01;14.00;;;9.17;;
6424;SDS011;12193;42.642;23.384;2023-04-24T17:00:30;14.03;;;9.50;;
6424;SDS011;12193;42.642;23.384;2023-04-24T17:03:00;13.87;;;9.50;;
6424;SDS011;12193;42.642;23.384;2023-04-24T17:05:29;14.07;;;9.47;;
6424;SDS011;12193;42.642;23.384;2023-04-24T17:07:58;14.43;;;9.57;;
6424;SDS011;12193;42.642;23.384;2023-04-24T17:10:28;12.50;;;9.67;;
6424;SDS011;12193;42.642;23.384;2023-04-24T17:12:59;11.83;;;8.87;;
6424;SDS011;12193;42.642;23.384;2023-04-24T17:15:29;13.97;;;9.93;;
6424;SDS011;12193;42.642;23.384;2023-04-24T17:17:59;16.60;;;9.87;;
6424;SDS011;12193;42.642;23.384;2023-04-24T17:20:29;13.07;;;9.63;;
6424;SDS011;12193;42.642;23.384;2023-04-24T17:22:58;14.50;;;9.60;;
6424;SDS011;12193;42.642;23.384;2023-04-24T17:25:27;14.07;;;9.83;;
6424;SDS011;12193;42.642;23.384;2023-04-24T17:28:00;14.40;;;9.70;;
6424;SDS011;12193;42.642;23.384;2023-04-24T17:30:30;16.97;;;10.10;;
6424;SDS011;12193;42.642;23.384;2023-04-24T17:32:59;14.90;;;10.73;;
6424;SDS011;12193;42.642;23.384;2023-04-24T17:35:28;18.23;;;11.83;;
6424;SDS011;12193;42.642;23.384;2023-04-24T17:37:57;16.20;;;10.83;;
6424;SDS011;12193;42.642;23.384;2023-04-24T17:40:27;15.57;;;10.67;;
6424;SDS011;12193;42.642;23.384;2023-04-24T17:42:56;20.50;;;11.70;;
